Time;durP1;ratioP1;P1;durP2;ratioP2;P2;SDS_P1;SDS_P2;PMS_P1;PMS_P2;Temp;Humidity;BMP_temperature;BMP_pressure;BME280_temperature;BME280_humidity;BME280_pressure;Samples;Min_cycle;Max_cycle;Signal;HPM_P1;HPM_P2
2024/01/06 00:02:33;;;;;;;10.93;6.13;;;;;;;8.30;100.00;99284.06;8391303;28;20041;-55
2024/01/06 00:06:34;;;;;;;11.48;6.95;;;;;;;8.29;100.00;99281.53;8392524;28;20131;-55
2024/01/06 00:10:34;;;;;;;10.77;6.72;;;;;;;8.24;100.00;99287.38;8391454;28;20036;-57
2024/01/06 00:14:35;;;;;;;12.88;7.22;;;;;;;8.27;100.00;99288.91;8406669;28;20033;-57
2024/01/06 00:18:35;;;;;;;14.23;7.28;;;;;;;8.26;100.00;99288.06;8391537;28;20039;-56
2024/01/06 00:22:36;;;;;;;10.85;6.30;;;;;;;8.28;100.00;99290.59;8393413;28;20037;-56
2024/01/06 00:26:37;;;;;;;12.68;7.35;;;;;;;8.24;100.00;99292.78;8391545;28;20427;-56
2024/01/06 00:30:37;;;;;;;13.02;7.43;;;;;;;8.25;100.00;99298.97;8391168;28;20398;-55
2024/01/06 00:34:38;;;;;;;12.10;7.60;;;;;;;8.25;100.00;99307.06;8362001;28;20284;-58
2024/01/06 00:38:38;;;;;;;10.50;6.25;;;;;;;8.24;100.00;99306.22;8339003;28;20252;-58
2024/01/06 00:42:39;;;;;;;9.45;6.30;;;;;;;8.19;100.00;99308.50;8321344;28;20037;-56
2024/01/06 00:46:39;;;;;;;10.23;6.45;;;;;;;8.11;100.00;99312.97;8339552;28;20033;-57
2024/01/06 00:50:40;;;;;;;10.27;6.30;;;;;;;8.05;100.00;99304.50;8340201;28;20040;-55
2024/01/06 00:54:40;;;;;;;8.73;5.30;;;;;;;8.07;100.00;99310.59;8337077;28;20279;-56
2024/01/06 00:58:41;;;;;;;8.05;6.03;;;;;;;8.00;100.00;99319.44;8339844;28;20048;-58
2024/01/06 01:02:41;;;;;;;8.55;6.25;;;;;;;7.98;100.00;99310.66;8308491;28;20534;-59
2024/01/06 01:06:43;;;;;;;8.52;5.95;;;;;;;7.91;100.00;99318.50;8326634;28;20440;-59
2024/01/06 01:10:44;;;;;;;8.88;5.40;;;;;;;7.88;100.00;99324.19;8304484;28;20286;-59
2024/01/06 01:14:45;;;;;;;8.65;5.13;;;;;;;7.90;100.00;99313.28;8335551;28;20033;-60
2024/01/06 01:18:45;;;;;;;8.18;5.15;;;;;;;7.94;100.00;99320.88;8299896;28;20177;-59
2024/01/06 01:22:46;;;;;;;9.20;5.88;;;;;;;7.96;100.00;99321.56;8309594;28;20044;-59
2024/01/06 01:26:46;;;;;;;12.73;7.25;;;;;;;7.95;100.00;99327.97;8293923;28;20060;-59
2024/01/06 01:30:47;;;;;;;12.38;7.38;;;;;;;7.97;100.00;99334.00;8291905;28;20247;-59
2024/01/06 01:34:47;;;;;;;12.02;7.53;;;;;;;7.94;100.00;99342.41;8301886;28;20395;-62
2024/01/06 01:38:48;;;;;;;10.32;7.53;;;;;;;8.03;100.00;99341.47;8334926;28;20135;-59
2024/01/06 01:42:48;;;;;;;14.63;8.70;;;;;;;8.07;100.00;99348.28;8332351;28;20048;-59
2024/01/06 01:46:49;;;;;;;15.70;9.13;;;;;;;8.12;100.00;99349.66;8378116;28;20041;-58
2024/01/06 01:50:50;;;;;;;16.33;10.07;;;;;;;8.11;100.00;99345.28;8388648;28;20032;-57
2024/01/06 01:54:52;;;;;;;19.08;11.05;;;;;;;8.13;100.00;99348.63;8390563;28;20032;-57
2024/01/06 01:58:53;;;;;;;19.70;10.98;;;;;;;8.06;100.00;99354.63;8388883;28;20090;-57
2024/01/06 02:02:53;;;;;;;25.05;10.93;;;;;;;8.15;100.00;99352.88;8386469;28;20043;-59
2024/01/06 02:06:54;;;;;;;22.17;12.05;;;;;;;8.17;100.00;99358.13;8386464;28;20119;-59
2024/01/06 02:10:56;;;;;;;28.98;12.90;;;;;;;8.14;100.00;99366.50;8389610;28;20044;-57
2024/01/06 02:14:56;;;;;;;24.27;12.43;;;;;;;8.11;100.00;99364.13;8389071;28;20110;-59
2024/01/06 02:18:58;;;;;;;27.70;13.25;;;;;;;8.12;100.00;99371.19;8388909;28;20032;-57
2024/01/06 02:23:00;;;;;;;26.63;13.70;;;;;;;8.13;100.00;99378.25;8387906;28;20125;-56
2024/01/06 02:27:00;;;;;;;25.35;13.55;;;;;;;8.12;100.00;99376.56;8391221;28;20032;-56
2024/01/06 02:31:01;;;;;;;29.17;13.63;;;;;;;8.12;100.00;99379.25;8388709;28;20044;-56
2024/01/06 02:35:01;;;;;;;32.15;14.63;;;;;;;8.12;100.00;99384.63;8393635;28;20043;-56
2024/01/06 02:39:02;;;;;;;37.05;17.13;;;;;;;8.14;100.00;99379.97;8349686;28;20288;-59
2024/01/06 02:43:04;;;;;;;38.05;17.95;;;;;;;8.17;100.00;99387.72;8338532;28;20227;-59
2024/01/06 02:47:05;;;;;;;42.58;18.08;;;;;;;8.19;100.00;99389.25;8340066;28;20223;-59
2024/01/06 02:51:05;;;;;;;36.97;17.70;;;;;;;8.23;100.00;99397.91;8339305;28;20534;-59
2024/01/06 02:55:06;;;;;;;39.63;19.00;;;;;;;8.22;100.00;99399.75;8338366;28;20032;-59
2024/01/06 02:59:06;;;;;;;45.30;19.70;;;;;;;8.24;100.00;99402.28;8295700;28;20145;-58
2024/01/06 03:03:07;;;;;;;42.13;20.45;;;;;;;8.26;100.00;99411.06;8317067;28;20722;-58
2024/01/06 03:07:07;;;;;;;49.03;21.23;;;;;;;8.26;100.00;99405.69;8366199;28;20250;-58
2024/01/06 03:11:08;;;;;;;54.42;21.75;;;;;;;8.28;100.00;99419.81;8329741;28;20408;-58
2024/01/06 03:15:08;;;;;;;52.45;21.90;;;;;;;8.28;100.00;99414.44;8295497;28;20188;-58
2024/01/06 03:19:09;;;;;;;55.22;23.02;;;;;;;8.30;100.00;99428.59;8295542;28;20699;-58
2024/01/06 03:23:10;;;;;;;57.60;23.27;;;;;;;8.30;100.00;99423.22;8296348;28;20040;-56
2024/01/06 03:27:10;;;;;;;63.90;24.17;;;;;;;8.29;100.00;99437.69;8295613;28;20211;-56
2024/01/06 03:31:10;;;;;;;69.70;22.98;;;;;;;8.29;100.00;99427.75;8295153;28;20040;-56
2024/01/06 03:35:11;;;;;;;56.55;23.90;;;;;;;8.27;100.00;99423.53;8312065;28;20037;-55
2024/01/06 03:39:13;;;;;;;60.05;24.35;;;;;;;8.28;100.00;99433.28;8343481;28;20107;-59
2024/01/06 03:43:13;;;;;;;63.38;25.35;;;;;;;8.29;100.00;99432.31;8390463;28;20048;-58
2024/01/06 03:47:14;;;;;;;62.95;23.60;;;;;;;8.29;100.00;99445.78;8389036;28;20037;-58
2024/01/06 03:51:14;;;;;;;57.30;23.55;;;;;;;8.30;100.00;99442.91;8391698;28;20201;-58
2024/01/06 03:55:16;;;;;;;69.57;24.98;;;;;;;8.28;100.00;99444.06;8393841;28;20129;-58
2024/01/06 03:59:16;;;;;;;62.08;24.15;;;;;;;8.32;100.00;99445.47;8392127;28;20040;-59
2024/01/06 04:03:17;;;;;;;61.75;23.67;;;;;;;8.34;100.00;99448.81;8391475;28;20072;-58
2024/01/06 04:07:17;;;;;;;58.72;23.80;;;;;;;8.35;100.00;99447.84;8387122;28;20047;-58
2024/01/06 04:11:18;;;;;;;63.65;23.38;;;;;;;8.36;100.00;99446.84;8391722;28;20124;-59
2024/01/06 04:15:18;;;;;;;59.78;25.40;;;;;;;8.37;100.00;99446.69;8395785;28;20037;-60
2024/01/06 04:19:20;;;;;;;59.78;23.05;;;;;;;8.40;100.00;99450.91;8389850;28;20040;-59
2024/01/06 04:23:23;;;;;;;59.53;22.85;;;;;;;8.39;100.00;99454.63;8388887;28;20044;-58
2024/01/06 04:27:23;;;;;;;60.25;24.33;;;;;;;8.39;100.00;99457.31;8389693;28;20105;-60
2024/01/06 04:31:24;;;;;;;54.65;23.30;;;;;;;8.38;100.00;99466.41;8389310;28;20032;-57
2024/01/06 04:35:25;;;;;;;50.65;21.63;;;;;;;8.36;100.00;99466.53;8363930;28;20037;-58
2024/01/06 04:39:25;;;;;;;55.85;21.98;;;;;;;8.34;100.00;99473.06;8325941;28;20714;-57
2024/01/06 04:43:26;;;;;;;51.30;22.50;;;;;;;8.36;100.00;99476.47;8280322;28;20275;-56
2024/01/06 04:47:27;;;;;;;50.70;20.50;;;;;;;8.31;100.00;99467.97;8292959;28;20320;-58
2024/01/06 04:51:28;;;;;;;49.55;20.17;;;;;;;8.26;100.00;99475.69;8292221;28;20342;-56
2024/01/06 04:55:28;;;;;;;53.08;21.13;;;;;;;8.22;100.00;99466.16;8290259;28;20036;-57
2024/01/06 04:59:29;;;;;;;54.72;22.77;;;;;;;8.23;100.00;99476.00;8292499;28;20418;-57
2024/01/06 05:03:29;;;;;;;55.90;22.73;;;;;;;8.25;100.00;99479.34;8285660;28;20260;-58
2024/01/06 05:07:29;;;;;;;57.53;24.95;;;;;;;8.22;100.00;99493.09;8304762;28;20044;-57
2024/01/06 05:11:30;;;;;;;53.75;21.33;;;;;;;8.11;100.00;99498.69;8331488;28;20758;-56
2024/01/06 05:15:31;;;;;;;55.45;20.83;;;;;;;8.06;100.00;99502.66;8316104;28;20368;-58
2024/01/06 05:19:31;;;;;;;54.10;20.38;;;;;;;8.04;100.00;99504.66;8334726;28;20264;-57
2024/01/06 05:23:32;;;;;;;52.22;21.20;;;;;;;8.07;100.00;99508.91;8332661;28;20369;-57
2024/01/06 05:27:32;;;;;;;49.75;20.30;;;;;;;8.02;100.00;99509.34;8329725;28;20356;-57
2024/01/06 05:31:33;;;;;;;53.78;20.10;;;;;;;8.02;100.00;99517.41;8332798;28;20028;-57
2024/01/06 05:35:33;;;;;;;47.55;18.58;;;;;;;7.74;100.00;99523.78;8357090;28;20487;-60
2024/01/06 05:39:34;;;;;;;40.90;16.90;;;;;;;7.54;100.00;99534.75;8404101;28;20086;-59
2024/01/06 05:43:34;;;;;;;39.05;14.90;;;;;;;7.39;100.00;99528.97;8389721;28;20037;-60
2024/01/06 05:47:35;;;;;;;41.45;16.25;;;;;;;7.25;100.00;99537.47;8390012;28;20539;-60
2024/01/06 05:51:36;;;;;;;37.03;14.93;;;;;;;7.23;100.00;99544.81;8389581;28;20068;-57
2024/01/06 05:55:38;;;;;;;38.42;14.65;;;;;;;7.19;100.00;99553.31;8389849;28;20029;-57
2024/01/06 05:59:39;;;;;;;36.03;14.27;;;;;;;7.16;100.00;99562.53;8389556;28;20120;-59
2024/01/06 06:03:39;;;;;;;36.90;14.23;;;;;;;7.10;100.00;99576.53;8382582;28;20036;-57
2024/01/06 06:07:40;;;;;;;34.72;13.70;;;;;;;7.12;100.00;99577.25;8374739;28;20216;-59
2024/01/06 06:11:40;;;;;;;37.70;14.10;;;;;;;7.07;100.00;99582.19;8337396;28;20635;-59
2024/01/06 06:15:41;;;;;;;35.78;12.73;;;;;;;7.06;100.00;99585.03;8337261;28;20333;-59
2024/01/06 06:19:41;;;;;;;34.30;12.45;;;;;;;6.97;100.00;99596.59;8340798;28;20040;-59
2024/01/06 06:23:41;;;;;;;28.77;11.52;;;;;;;6.95;100.00;99599.44;8339135;28;20047;-59
2024/01/06 06:27:42;;;;;;;32.70;11.65;;;;;;;6.97;100.00;99604.66;8338628;28;20643;-57
2024/01/06 06:31:44;;;;;;;29.98;12.13;;;;;;;6.92;100.00;99610.47;8338379;28;20601;-59
2024/01/06 06:35:45;;;;;;;30.15;12.10;;;;;;;6.95;100.00;99615.56;8349060;28;20029;-58
2024/01/06 06:39:45;;;;;;;31.58;11.95;;;;;;;6.93;100.00;99627.44;8391610;28;20174;-57
2024/01/06 06:43:45;;;;;;;27.52;11.10;;;;;;;6.97;100.00;99634.22;8354371;28;20126;-59
2024/01/06 06:47:46;;;;;;;27.73;11.20;;;;;;;6.95;100.00;99637.06;8339454;28;20090;-59
2024/01/06 06:51:48;;;;;;;32.90;12.13;;;;;;;6.95;100.00;99647.78;8339265;28;20044;-59
2024/01/06 06:55:49;;;;;;;32.33;12.10;;;;;;;6.97;100.00;99651.19;8338749;28;20040;-58
2024/01/06 06:59:49;;;;;;;32.25;12.02;;;;;;;6.98;100.00;99652.06;8337660;28;20760;-59
2024/01/06 07:03:50;;;;;;;32.17;11.75;;;;;;;6.98;100.00;99658.25;8332555;28;20196;-57
2024/01/06 07:07:50;;;;;;;37.28;13.20;;;;;;;7.02;100.00;99665.03;8338153;28;20497;-58
2024/01/06 07:11:51;;;;;;;33.92;13.70;;;;;;;6.98;100.00;99669.00;8379531;28;20043;-59
2024/01/06 07:15:51;;;;;;;40.78;14.45;;;;;;;6.94;100.00;99689.09;8393932;28;20032;-59
2024/01/06 07:19:52;;;;;;;34.28;13.18;;;;;;;6.93;100.00;99692.78;8391912;28;20107;-58
2024/01/06 07:23:52;;;;;;;37.67;13.52;;;;;;;6.93;100.00;99700.84;8393077;28;20048;-63
2024/01/06 07:27:53;;;;;;;37.45;14.80;;;;;;;6.91;100.00;99708.19;8374587;28;20040;-59
2024/01/06 07:31:53;;;;;;;41.10;14.80;;;;;;;6.91;100.00;99718.06;8374794;28;20492;-60
2024/01/06 07:35:53;;;;;;;35.88;14.48;;;;;;;6.94;100.00;99736.59;8391910;28;20033;-58
2024/01/06 07:39:55;;;;;;;30.67;12.57;;;;;;;6.90;100.00;99725.28;8389220;28;20101;-59
2024/01/06 07:43:56;;;;;;;34.70;13.50;;;;;;;6.83;100.00;99732.19;8392114;28;20115;-59
2024/01/06 07:47:56;;;;;;;34.03;13.25;;;;;;;6.85;100.00;99732.03;8392015;28;20037;-58
2024/01/06 07:51:56;;;;;;;31.33;13.02;;;;;;;6.80;100.00;99737.81;8392246;28;20040;-60
2024/01/06 07:55:57;;;;;;;31.92;12.52;;;;;;;6.74;100.00;99735.69;8391803;28;20079;-59
2024/01/06 07:59:57;;;;;;;26.02;11.32;;;;;;;6.75;100.00;99756.19;8389278;28;20052;-58
2024/01/06 08:03:58;;;;;;;25.45;11.23;;;;;;;6.74;100.00;99767.91;8384860;28;20365;-59
2024/01/06 08:07:59;;;;;;;28.63;11.98;;;;;;;6.70;100.00;99782.59;8391564;28;20046;-58
2024/01/06 08:11:59;;;;;;;28.50;11.05;;;;;;;6.61;100.00;99778.03;8388703;28;20570;-58
2024/01/06 08:16:00;;;;;;;29.17;11.52;;;;;;;6.65;100.00;99795.56;8337279;28;20139;-59
2024/01/06 08:20:00;;;;;;;28.10;11.25;;;;;;;6.62;100.00;99798.50;8337233;28;20599;-58
2024/01/06 08:24:01;;;;;;;29.67;11.90;;;;;;;6.59;100.00;99812.22;8364734;28;20045;-59
2024/01/06 08:28:01;;;;;;;33.00;12.35;;;;;;;6.59;100.00;99812.22;8392137;28;20407;-59
2024/01/06 08:32:02;;;;;;;34.60;13.07;;;;;;;6.60;100.00;99819.31;8390225;28;20511;-59
2024/01/06 08:36:03;;;;;;;32.55;13.57;;;;;;;6.55;100.00;99837.63;8390758;28;20063;-59
2024/01/06 08:40:04;;;;;;;31.33;12.43;;;;;;;6.56;100.00;99839.31;8390907;28;20036;-59
2024/01/06 08:44:05;;;;;;;34.58;13.10;;;;;;;6.61;100.00;99846.97;8388645;28;20040;-59
2024/01/06 08:48:06;;;;;;;32.10;12.82;;;;;;;6.51;100.00;99846.94;8390938;28;20071;-58
2024/01/06 08:52:06;;;;;;;36.70;12.77;;;;;;;6.46;100.00;99843.78;8390498;28;20032;-59
2024/01/06 08:56:09;;;;;;;29.33;11.65;;;;;;;6.52;100.00;99854.00;8386354;28;20036;-58
2024/01/06 09:00:10;;;;;;;28.88;12.02;;;;;;;6.54;100.00;99856.56;8388566;28;20115;-58
2024/01/06 09:04:12;;;;;;;25.52;11.25;;;;;;;6.57;100.00;99867.91;8389434;28;20064;-58
2024/01/06 09:08:13;;;;;;;30.45;12.77;;;;;;;6.58;100.00;99858.84;8389592;28;20033;-59
2024/01/06 09:12:14;;;;;;;30.25;11.25;;;;;;;6.70;100.00;99867.69;8391250;28;20113;-60
2024/01/06 09:16:14;;;;;;;33.70;12.50;;;;;;;6.66;100.00;99877.84;8389369;28;20395;-59
2024/01/06 09:20:17;;;;;;;33.20;13.38;;;;;;;6.72;100.00;99888.06;8385913;28;20586;-59
2024/01/06 09:24:17;;;;;;;28.20;10.95;;;;;;;6.61;100.00;99896.19;8387336;28;20154;-59
2024/01/06 09:28:18;;;;;;;29.80;11.40;;;;;;;6.60;100.00;99899.00;8388047;28;20070;-60
2024/01/06 09:32:19;;;;;;;30.90;12.02;;;;;;;6.68;100.00;99902.72;8386602;28;20480;-58
2024/01/06 09:36:19;;;;;;;37.72;13.07;;;;;;;6.60;100.00;99907.91;8386765;28;20457;-59
2024/01/06 09:40:23;;;;;;;31.35;12.48;;;;;;;6.64;100.00;99922.78;8387023;28;20032;-57
2024/01/06 09:44:24;;;;;;;28.92;12.40;;;;;;;6.60;100.00;99926.72;8373050;28;20067;-61
2024/01/06 09:48:30;;;;;;;31.23;12.40;;;;;;;6.70;100.00;99924.06;8393234;28;20044;-56
2024/01/06 09:52:33;;;;;;;32.67;12.57;;;;;;;6.79;100.00;99926.84;8391503;28;20048;-56
2024/01/06 09:56:34;;;;;;;35.75;14.10;;;;;;;6.81;100.00;99935.63;8391909;28;20028;-59
2024/01/06 10:00:34;;;;;;;35.53;13.65;;;;;;;6.86;100.00;99938.75;8393939;28;20055;-60
2024/01/06 10:04:35;;;;;;;31.25;12.48;;;;;;;6.75;100.00;99936.16;8393430;28;20052;-57
2024/01/06 10:08:35;;;;;;;29.90;11.18;;;;;;;6.71;100.00;99945.44;8392011;28;20128;-57
2024/01/06 10:12:39;;;;;;;27.50;11.40;;;;;;;6.73;100.00;99939.94;8392203;28;20039;-56
2024/01/06 10:16:40;;;;;;;30.92;12.07;;;;;;;6.73;100.00;99932.75;8393309;28;20037;-57
2024/01/06 10:20:40;;;;;;;29.02;11.75;;;;;;;6.66;100.00;99945.00;8390840;28;20120;-58
2024/01/06 10:24:41;;;;;;;27.27;11.30;;;;;;;6.76;100.00;99943.22;8379892;28;20040;-58
2024/01/06 10:28:41;;;;;;;22.70;9.70;;;;;;;6.76;100.00;99945.03;8388678;28;20040;-58
2024/01/06 10:32:41;;;;;;;23.60;11.35;;;;;;;6.82;100.00;99939.16;8389939;28;20094;-58
2024/01/06 10:36:42;;;;;;;24.58;10.55;;;;;;;6.82;100.00;99942.69;8392429;28;20041;-59
2024/01/06 10:41:07;;;;;;;25.95;10.48;;;;;;;6.89;100.00;99957.31;8392642;28;20040;-59
2024/01/06 10:45:09;;;;;;;24.83;10.73;;;;;;;6.85;100.00;99957.69;8390926;28;20041;-59
2024/01/06 10:49:11;;;;;;;26.23;10.82;;;;;;;6.87;100.00;99945.84;8392688;28;20509;-59
2024/01/06 10:53:14;;;;;;;24.77;10.68;;;;;;;6.92;100.00;99954.34;8392097;28;20557;-59
2024/01/06 10:57:19;;;;;;;25.25;11.25;;;;;;;6.82;100.00;99948.06;8391440;28;20499;-60
2024/01/06 11:01:22;;;;;;;27.63;11.18;;;;;;;6.81;100.00;99943.69;8381167;28;20098;-59
2024/01/06 11:05:23;;;;;;;25.83;11.35;;;;;;;6.85;100.00;99953.19;8387829;28;20040;-58
2024/01/06 11:09:31;;;;;;;25.25;10.55;;;;;;;6.84;100.00;99956.88;8388803;28;20060;-58
2024/01/06 11:13:31;;;;;;;28.33;9.75;;;;;;;6.96;100.00;99950.44;8389225;28;20094;-60
2024/01/06 11:17:53;;;;;;;27.05;10.73;;;;;;;7.18;100.00;99958.34;8388444;28;20032;-59
2024/01/06 11:21:54;;;;;;;24.75;10.10;;;;;;;7.17;100.00;99959.31;8388881;28;20173;-60
2024/01/06 11:25:55;;;;;;;24.42;10.02;;;;;;;7.04;100.00;99953.31;8388220;28;20105;-59
2024/01/06 11:29:57;;;;;;;21.10;9.65;;;;;;;7.02;100.00;99960.63;8390647;28;20039;-58
2024/01/06 11:34:13;;;;;;;20.70;9.32;;;;;;;7.10;100.00;99960.84;8388198;28;20588;-59
2024/01/06 11:38:15;;;;;;;22.85;9.15;;;;;;;7.16;100.00;99957.63;8381922;28;20044;-59
2024/01/06 11:42:16;;;;;;;22.98;9.13;;;;;;;7.19;100.00;99959.19;8386723;28;20525;-59
2024/01/06 11:46:17;;;;;;;19.45;8.25;;;;;;;7.15;100.00;99961.31;8388095;28;20418;-57
2024/01/06 11:50:17;;;;;;;17.88;8.00;;;;;;;7.04;100.00;99956.00;8386071;28;20967;-56
2024/01/06 11:54:18;;;;;;;21.25;8.50;;;;;;;6.98;100.00;99958.38;8387896;28;20040;-57
2024/01/06 11:58:18;;;;;;;16.25;7.35;;;;;;;6.94;100.00;99959.59;8382056;28;20060;-62
2024/01/06 12:02:19;;;;;;;19.10;8.50;;;;;;;6.94;100.00;99963.16;8385626;28;20518;-60
2024/01/06 12:06:21;;;;;;;16.90;8.30;;;;;;;6.86;100.00;99960.25;8385119;28;20478;-58
2024/01/06 12:10:23;;;;;;;23.77;9.93;;;;;;;6.81;100.00;99967.00;8385498;28;20569;-57
2024/01/06 12:14:24;;;;;;;24.17;8.93;;;;;;;6.66;100.00;99968.31;8365338;28;20075;-58
2024/01/06 12:18:25;;;;;;;21.45;9.30;;;;;;;6.65;100.00;99967.44;8374210;28;20037;-58
2024/01/06 12:22:26;;;;;;;24.30;10.20;;;;;;;6.60;100.00;99967.00;8374263;28;20534;-57
2024/01/06 12:26:29;;;;;;;21.33;9.63;;;;;;;6.54;100.00;99958.59;8385874;28;20056;-58
2024/01/06 12:30:31;;;;;;;26.45;10.15;;;;;;;6.44;100.00;99969.28;8383527;28;20043;-58
2024/01/06 12:34:31;;;;;;;31.30;12.18;;;;;;;6.42;100.00;99970.34;8388852;28;20032;-59
2024/01/06 12:38:32;;;;;;;26.38;11.32;;;;;;;6.33;100.00;99976.47;8385271;28;20032;-59
2024/01/06 12:42:32;;;;;;;31.02;11.63;;;;;;;6.29;100.00;99975.91;8388090;28;20039;-59
2024/01/06 12:46:33;;;;;;;30.20;11.90;;;;;;;6.25;100.00;99976.28;8385796;28;20093;-58
2024/01/06 12:50:33;;;;;;;29.38;11.57;;;;;;;6.21;100.00;99981.03;8386734;28;20071;-57
2024/01/06 12:54:34;;;;;;;29.30;12.18;;;;;;;6.23;100.00;99987.16;8389762;28;20086;-57
2024/01/06 12:58:34;;;;;;;41.85;13.73;;;;;;;6.15;100.00;100000.34;8387730;28;20045;-57
2024/01/06 13:02:35;;;;;;;35.03;13.70;;;;;;;6.10;100.00;99999.00;8386475;28;20449;-58
2024/01/06 13:06:36;;;;;;;36.25;14.20;;;;;;;6.05;100.00;100010.13;8387577;28;20051;-57
2024/01/06 13:10:36;;;;;;;32.83;13.35;;;;;;;6.00;100.00;100001.56;8384515;28;20427;-58
2024/01/06 13:14:38;;;;;;;38.95;14.32;;;;;;;6.06;100.00;100005.63;8357442;28;20028;-60
2024/01/06 13:18:38;;;;;;;32.40;11.60;;;;;;;6.01;100.00;99997.94;8380954;28;20423;-58
2024/01/06 13:22:40;;;;;;;35.67;13.40;;;;;;;6.01;100.00;100003.31;8382771;28;20032;-57
2024/01/06 13:26:41;;;;;;;32.97;13.13;;;;;;;6.00;100.00;100017.66;8378046;28;20120;-58
2024/01/06 13:30:41;;;;;;;40.65;13.85;;;;;;;5.95;100.00;100009.16;8379863;28;20074;-59
2024/01/06 13:34:43;;;;;;;38.47;14.65;;;;;;;5.99;100.00;100007.94;8380947;28;20431;-58
2024/01/06 13:38:43;;;;;;;41.75;13.60;;;;;;;5.99;100.00;100015.97;8374068;28;20142;-57
2024/01/06 13:42:44;;;;;;;38.83;13.35;;;;;;;5.92;100.00;100018.28;8382408;28;20037;-57
2024/01/06 13:46:44;;;;;;;40.75;14.82;;;;;;;5.93;100.00;100032.56;8382162;28;20112;-58
2024/01/06 13:50:46;;;;;;;39.70;14.05;;;;;;;5.90;100.00;100040.84;8383418;28;20662;-58
2024/01/06 13:54:47;;;;;;;42.28;14.77;;;;;;;5.86;100.00;100039.41;8383662;28;20465;-57
2024/01/06 13:58:47;;;;;;;39.15;14.90;;;;;;;5.80;100.00;100054.09;8376790;28;20218;-58
2024/01/06 14:02:48;;;;;;;35.55;14.18;;;;;;;5.74;100.00;100048.41;8378068;28;20052;-59
2024/01/06 14:06:55;;;;;;;35.03;12.40;;;;;;;5.72;100.00;100050.34;8380933;28;20040;-57
2024/01/06 14:10:56;;;;;;;32.60;12.85;;;;;;;5.78;100.00;100060.56;8386152;28;20043;-59
2024/01/06 14:14:56;;;;;;;35.03;12.45;;;;;;;5.75;100.00;100064.38;8382663;28;20032;-58
2024/01/06 14:18:57;;;;;;;38.22;13.68;;;;;;;5.66;100.00;100061.53;8387070;28;20033;-58
2024/01/06 14:22:58;;;;;;;38.10;13.18;;;;;;;5.64;100.00;100069.72;8383691;28;20100;-59
2024/01/06 14:26:59;;;;;;;34.15;11.70;;;;;;;5.64;100.00;100080.44;8387842;28;20040;-58
2024/01/06 14:30:59;;;;;;;37.00;12.88;;;;;;;5.66;100.00;100083.00;8391820;28;20459;-58
2024/01/06 14:35:01;;;;;;;37.45;12.50;;;;;;;5.65;100.00;100087.50;8394445;28;20486;-60
2024/01/06 14:39:04;;;;;;;37.00;14.85;;;;;;;5.56;100.00;100093.59;8390206;28;20032;-60
2024/01/06 14:43:04;;;;;;;41.20;15.73;;;;;;;5.56;100.00;100103.47;8394139;28;20299;-59
2024/01/06 14:47:05;;;;;;;36.05;14.25;;;;;;;5.52;100.00;100115.41;8394468;28;20041;-60
2024/01/06 14:51:05;;;;;;;40.97;15.27;;;;;;;5.45;100.00;100116.81;8391754;28;20044;-59
2024/01/06 14:55:06;;;;;;;42.83;16.95;;;;;;;5.35;100.00;100127.41;8390767;28;20063;-60
2024/01/06 14:59:07;;;;;;;44.40;16.23;;;;;;;5.34;100.00;100131.06;8388309;28;20538;-60
2024/01/06 15:03:09;;;;;;;52.30;19.20;;;;;;;5.32;100.00;100134.84;8390710;28;20128;-61
2024/01/06 15:07:10;;;;;;;47.80;17.60;;;;;;;5.29;100.00;100146.66;8392465;28;20410;-60
2024/01/06 15:11:10;;;;;;;48.53;16.67;;;;;;;5.24;100.00;100147.94;8392879;28;20037;-60
2024/01/06 15:15:11;;;;;;;52.42;18.73;;;;;;;5.24;100.00;100154.16;8375124;28;20048;-59
2024/01/06 15:19:12;;;;;;;55.28;19.55;;;;;;;5.29;100.00;100165.41;8388749;28;20426;-59
2024/01/06 15:23:12;;;;;;;51.38;18.30;;;;;;;5.19;100.00;100166.22;8392651;28;20063;-57
2024/01/06 15:27:14;;;;;;;50.83;18.70;;;;;;;5.15;100.00;100184.34;8389625;28;20045;-57
2024/01/06 15:31:14;;;;;;;52.55;18.83;;;;;;;5.06;100.00;100185.00;8388992;28;20115;-58
2024/01/06 15:35:15;;;;;;;52.00;18.58;;;;;;;5.05;100.00;100183.31;8388442;28;20037;-56
2024/01/06 15:39:17;;;;;;;49.97;16.02;;;;;;;5.06;100.00;100184.19;8388709;28;20067;-57
2024/01/06 15:43:17;;;;;;;51.15;18.20;;;;;;;5.04;100.00;100196.81;8388496;28;20040;-57
2024/01/06 15:47:18;;;;;;;42.15;16.10;;;;;;;4.96;100.00;100199.19;8391562;28;20047;-57
2024/01/06 15:51:18;;;;;;;46.60;16.95;;;;;;;4.94;100.00;100199.31;8390386;28;20168;-57
2024/01/06 15:55:18;;;;;;;43.67;16.33;;;;;;;4.97;100.00;100217.00;8386498;28;20039;-57
2024/01/06 15:59:19;;;;;;;46.45;16.33;;;;;;;4.94;100.00;100211.88;8390599;28;20045;-58
2024/01/06 16:03:20;;;;;;;41.70;16.70;;;;;;;4.90;100.00;100210.38;8392377;28;20474;-56
2024/01/06 16:07:22;;;;;;;43.15;15.73;;;;;;;4.90;100.00;100211.22;8390805;28;20095;-57
2024/01/06 16:11:23;;;;;;;40.80;15.80;;;;;;;4.93;100.00;100215.50;8370061;28;20040;-56
2024/01/06 16:15:23;;;;;;;48.05;17.20;;;;;;;4.92;100.00;100224.50;8391078;28;20039;-57
2024/01/06 16:19:24;;;;;;;47.08;17.77;;;;;;;4.88;100.00;100217.69;8390405;28;20043;-57
2024/01/06 16:23:24;;;;;;;48.80;17.48;;;;;;;4.86;100.00;100228.50;8389330;28;20041;-58
2024/01/06 16:27:25;;;;;;;49.53;17.00;;;;;;;4.87;100.00;100226.66;8372852;28;20039;-58
2024/01/06 16:31:25;;;;;;;51.45;17.50;;;;;;;4.88;100.00;100228.38;8389305;28;20063;-57
2024/01/06 16:35:26;;;;;;;48.08;17.45;;;;;;;4.83;100.00;100243.94;8387556;28;20108;-58
2024/01/06 16:39:29;;;;;;;41.65;16.52;;;;;;;4.78;100.00;100238.03;8394199;28;20510;-57
2024/01/06 16:43:31;;;;;;;47.72;16.23;;;;;;;4.77;100.00;100241.69;8389107;28;20098;-57
2024/01/06 16:47:31;;;;;;;40.33;14.75;;;;;;;4.74;100.00;100241.91;8388688;28;20407;-57
2024/01/06 16:51:32;;;;;;;36.13;15.15;;;;;;;4.72;100.00;100243.84;8386757;28;20032;-57
2024/01/06 16:55:33;;;;;;;41.45;15.55;;;;;;;4.71;100.00;100252.84;8383963;28;20074;-58
2024/01/06 16:59:33;;;;;;;43.88;16.70;;;;;;;4.68;100.00;100247.72;8385460;28;20036;-57
2024/01/06 17:03:34;;;;;;;40.30;14.75;;;;;;;4.61;100.00;100257.16;8384586;28;20035;-57
2024/01/06 17:07:35;;;;;;;37.28;14.73;;;;;;;4.57;100.00;100253.81;8380818;28;20102;-56
2024/01/06 17:11:35;;;;;;;41.40;15.07;;;;;;;4.60;100.00;100266.16;8382834;28;20045;-56
2024/01/06 17:15:37;;;;;;;37.17;14.85;;;;;;;4.53;100.00;100270.22;8383802;28;20071;-57
2024/01/06 17:19:37;;;;;;;41.63;15.18;;;;;;;4.57;100.00;100269.06;8386940;28;20044;-57
2024/01/06 17:23:37;;;;;;;38.78;13.73;;;;;;;4.57;100.00;100283.28;8386414;28;20037;-57
2024/01/06 17:27:40;;;;;;;41.97;14.43;;;;;;;4.55;100.00;100285.22;8386020;28;20528;-58
2024/01/06 17:31:40;;;;;;;28.60;12.73;;;;;;;4.52;100.00;100288.13;8386671;28;20186;-57
2024/01/06 17:35:41;;;;;;;32.95;13.80;;;;;;;4.45;100.00;100272.59;8386558;28;20349;-57
2024/01/06 17:39:41;;;;;;;38.13;13.70;;;;;;;4.45;100.00;100280.63;8386597;28;20116;-56
2024/01/06 17:43:42;;;;;;;32.45;14.18;;;;;;;4.46;100.00;100290.34;8385555;28;20044;-57
2024/01/06 17:47:44;;;;;;;38.92;14.77;;;;;;;4.45;100.00;100294.00;8379483;28;20044;-59
2024/01/06 17:51:44;;;;;;;34.17;13.85;;;;;;;4.39;100.00;100289.91;8376802;28;20051;-57
2024/01/06 17:55:45;;;;;;;37.47;14.40;;;;;;;4.32;100.00;100304.69;8384655;28;20119;-58
2024/01/06 17:59:45;;;;;;;29.65;11.68;;;;;;;4.32;100.00;100309.19;8382985;28;20041;-60
2024/01/06 18:03:46;;;;;;;33.90;14.57;;;;;;;4.30;100.00;100305.78;8381973;28;20040;-56
2024/01/06 18:07:46;;;;;;;33.25;14.30;;;;;;;4.18;100.00;100318.19;8388346;28;20525;-59
2024/01/06 18:11:47;;;;;;;37.50;15.40;;;;;;;4.17;100.00;100326.31;8390541;28;20044;-60
2024/01/06 18:15:48;;;;;;;41.70;16.40;;;;;;;4.17;100.00;100334.34;8393002;28;20040;-56
2024/01/06 18:19:48;;;;;;;42.92;18.15;;;;;;;4.19;100.00;100330.59;8393079;28;20052;-57
2024/01/06 18:23:49;;;;;;;47.35;20.17;;;;;;;4.20;100.00;100326.09;8389472;28;20032;-57
2024/01/06 18:27:49;;;;;;;56.42;22.23;;;;;;;4.21;100.00;100339.34;8391442;28;20044;-57